Time;durP1;ratioP1;P1;durP2;ratioP2;P2;SDS_P1;SDS_P2;PMS_P1;PMS_P2;Temp;Humidity;BMP_temperature;BMP_pressure;BME280_temperature;BME280_humidity;BME280_pressure;Samples;Min_cycle;Max_cycle;Signal;HPM_P1;HPM_P2
2022/01/03 00:03:08;;;;;;;8.80;4.70;;;;;;;7.22;80.69;98178.37;220343;1276;22727;-76
2022/01/03 00:09:32;;;;;;;;;;;;;;;;;;;;;
2022/01/03 00:15:43;;;;;;;8.20;5.20;;;;;;;7.28;80.66;98180.28;220489;1274;23038;-76
2022/01/03 00:22:14;;;;;;;;;;;;;;;;;;;;;
2022/01/03 00:28:54;;;;;;;9.70;5.70;;;;;;;7.38;80.53;98161.60;220461;1274;22557;-76
2022/01/03 00:34:54;;;;;;;;;;;;;;;;;;;;;
2022/01/03 00:47:16;;;;;;;9.30;5.70;;;;;;;7.53;80.07;98136.11;220644;1273;22588;-76
2022/01/03 00:53:34;;;;;;;12.80;5.90;;;;;;;7.56;80.28;98147.02;220548;1274;22614;-76
2022/01/03 01:05:20;;;;;;;9.50;5.60;;;;;;;7.61;80.22;98141.64;220359;1274;22622;-76
2022/01/03 01:11:28;;;;;;;9.90;6.00;;;;;;;7.63;80.16;98156.27;220540;1274;22563;-76
2022/01/03 01:17:12;;;;;;;7.80;5.10;;;;;;;7.64;79.85;98149.54;220360;1274;22542;-76
2022/01/03 01:23:39;;;;;;;9.00;5.00;;;;;;;7.64;79.43;98124.48;220350;1273;22715;-76
2022/01/03 01:30:18;;;;;;;8.30;4.60;;;;;;;7.65;79.33;98121.85;220632;1274;22552;-77
2022/01/03 01:36:17;;;;;;;8.20;5.00;;;;;;;7.65;79.21;98100.76;220461;1274;25474;-77
2022/01/03 01:42:32;;;;;;;;;;;;;;;;;;;;;
2022/01/03 01:48:43;;;;;;;7.00;4.40;;;;;;;7.58;79.41;98101.10;220419;1273;26499;-77
2022/01/03 01:55:13;;;;;;;;;;;;;;;;;;;;;
2022/01/03 02:01:39;;;;;;;9.00;5.10;;;;;;;7.49;79.08;98078.49;220270;1274;25479;-77
2022/01/03 02:08:53;;;;;;;8.20;4.50;;;;;;;7.38;79.25;98062.00;220444;1274;25417;-76
2022/01/03 02:22:40;;;;;;;;;;;;;;;;;;;;;
2022/01/03 02:28:50;;;;;;;;;;;;;;;;;;;;;
2022/01/03 02:35:47;;;;;;;9.60;4.20;;;;;;;7.02;80.22;98009.59;220459;1274;24243;-77
2022/01/03 02:42:22;;;;;;;;;;;;;;;;;;;;;
2022/01/03 02:48:26;;;;;;;6.60;4.00;;;;;;;6.97;80.59;98031.02;220517;1274;24335;-77
2022/01/03 02:55:28;;;;;;;;;;;;;;;;;;;;;
2022/01/03 03:02:18;;;;;;;4.00;3.00;;;;;;;7.22;80.69;98024.83;220477;1274;22554;-77
2022/01/03 03:08:56;;;;;;;4.50;3.40;;;;;;;7.36;80.49;98008.94;220299;1274;24477;-76
2022/01/03 03:15:42;;;;;;;;;;;;;;;;;;;;;
2022/01/03 03:28:00;;;;;;;6.20;3.90;;;;;;;7.41;79.87;98002.11;220410;1273;22658;-77
2022/01/03 03:33:34;;;;;;;7.10;3.30;;;;;;;7.44;79.72;97996.42;220255;1275;26497;-76
2022/01/03 03:39:25;;;;;;;;;;;;;;;;;;;;;
2022/01/03 03:45:33;;;;;;;7.80;4.10;;;;;;;7.54;79.37;97962.17;220414;1274;24272;-77
2022/01/03 03:51:39;;;;;;;;;;;;;;;;;;;;;
2022/01/03 03:57:59;;;;;;;6.00;3.40;;;;;;;7.64;79.04;97952.27;220531;1274;24737;-76
2022/01/03 04:04:13;;;;;;;3.80;2.80;;;;;;;7.71;78.85;97959.44;220100;1274;24784;-76
2022/01/03 04:10:18;;;;;;;4.40;2.40;;;;;;;7.76;78.69;97953.34;220508;1274;24833;-77
2022/01/03 04:16:39;;;;;;;;;;;;;;;;;;;;;
2022/01/03 04:22:42;;;;;;;5.10;2.90;;;;;;;7.82;78.17;97949.67;220451;1273;22637;-77
2022/01/03 04:28:06;;;;;;;4.50;3.20;;;;;;;7.84;78.04;97941.17;220617;1274;25417;-77
2022/01/03 04:33:31;;;;;;;4.80;2.80;;;;;;;7.86;78.09;97940.29;220558;1274;25423;-76
2022/01/03 04:39:44;;;;;;;4.80;3.10;;;;;;;7.88;78.05;97943.34;220522;1274;25273;-77
2022/01/03 04:45:21;;;;;;;;;;;;;;;;;;;;;
2022/01/03 04:51:27;;;;;;;3.20;2.50;;;;;;;7.78;79.23;97924.04;220681;1274;24341;-76
2022/01/03 04:58:06;;;;;;;4.90;3.00;;;;;;;7.61;79.90;97909.30;220613;1274;24281;-76
2022/01/03 05:04:14;;;;;;;;;;;;;;;;;;;;;
2022/01/03 05:09:48;;;;;;;4.80;2.90;;;;;;;7.42;80.77;97901.59;220503;1274;22535;-76
2022/01/03 05:15:21;;;;;;;5.80;3.30;;;;;;;7.39;81.24;97896.30;220540;1274;22616;-76
2022/01/03 05:21:07;;;;;;;;;;;;;;;;;;;;;
2022/01/03 05:27:20;;;;;;;3.90;2.90;;;;;;;7.47;81.07;97880.04;220423;1274;23804;-77
2022/01/03 05:32:59;;;;;;;5.70;3.30;;;;;;;7.58;81.02;97884.73;220528;1273;26623;-76
2022/01/03 05:38:48;;;;;;;5.60;3.60;;;;;;;7.62;80.85;97894.13;220504;1274;25234;-76
2022/01/03 05:44:18;;;;;;;5.60;3.40;;;;;;;7.62;81.21;97896.38;220727;1273;22586;-75
2022/01/03 05:49:48;;;;;;;4.90;2.90;;;;;;;7.55;81.35;97901.55;220682;1274;22745;-75
2022/01/03 05:55:49;;;;;;;5.10;3.20;;;;;;;7.46;81.99;97880.09;220441;1274;22543;-76
2022/01/03 06:01:46;;;;;;;4.10;2.50;;;;;;;7.30;82.68;97870.73;220615;1274;25388;-75
2022/01/03 06:07:24;;;;;;;;;;;;;;;;;;;;;
2022/01/03 06:12:27;;;;;;;10.00;3.20;;;;;;;7.16;83.31;97882.55;220493;1274;22963;-75
2022/01/03 06:18:15;;;;;;;;;;;;;;;;;;;;;
2022/01/03 06:23:59;;;;;;;4.20;2.60;;;;;;;7.09;84.09;97884.39;220428;1274;22656;-76
2022/01/03 06:29:50;;;;;;;;;;;;;;;;;;;;;
2022/01/03 06:35:24;;;;;;;4.20;2.40;;;;;;;7.07;84.58;97885.33;220715;1274;25427;-76
2022/01/03 06:41:20;;;;;;;5.70;2.60;;;;;;;7.10;84.66;97895.15;220617;1274;22721;-75
2022/01/03 06:47:13;;;;;;;6.00;2.60;;;;;;;7.17;84.64;97914.08;220624;1274;22601;-76
2022/01/03 06:53:18;;;;;;;5.30;2.70;;;;;;;7.24;84.44;97918.03;220568;1276;22581;-75
2022/01/03 06:59:25;;;;;;;3.50;2.00;;;;;;;7.28;84.26;97925.91;220989;1274;22869;-75
2022/01/03 07:04:36;;;;;;;3.10;2.10;;;;;;;7.32;84.19;97923.04;220639;1275;26156;-76
2022/01/03 07:09:54;;;;;;;3.00;1.70;;;;;;;7.38;84.09;97924.06;220963;1274;24402;-77
2022/01/03 07:20:31;;;;;;;6.00;2.50;;;;;;;7.48;83.98;97937.47;220806;1274;22623;-76
2022/01/03 07:26:00;;;;;;;3.60;2.00;;;;;;;7.55;83.82;97943.88;220988;1274;25380;-76
2022/01/03 07:31:18;;;;;;;3.80;2.20;;;;;;;7.60;83.62;97948.29;220879;1274;22574;-76
2022/01/03 07:36:42;;;;;;;5.50;2.20;;;;;;;7.63;83.25;97955.27;220999;1274;25429;-75
2022/01/03 07:41:58;;;;;;;4.80;2.70;;;;;;;7.64;83.36;97960.48;220631;1274;22725;-76
2022/01/03 07:47:06;;;;;;;4.00;2.60;;;;;;;7.66;83.15;97965.84;221295;1274;22671;-74
2022/01/03 07:52:09;;;;;;;3.60;1.90;;;;;;;7.67;83.26;97970.48;220754;1274;22652;-74
2022/01/03 07:57:14;;;;;;;4.40;2.60;;;;;;;7.73;83.33;97975.62;220898;1274;22610;-76
2022/01/03 08:02:41;;;;;;;3.20;1.80;;;;;;;7.83;83.17;97983.02;220974;1274;22554;-75
2022/01/03 08:08:00;;;;;;;3.30;2.20;;;;;;;7.95;82.70;97995.13;220973;1274;26405;-75
2022/01/03 08:13:04;;;;;;;3.90;2.10;;;;;;;8.04;82.45;98008.73;221118;1274;24512;-75
2022/01/03 08:18:14;;;;;;;3.70;1.50;;;;;;;8.12;82.05;98010.98;220813;1274;210276;-75
2022/01/03 08:23:37;;;;;;;3.40;1.90;;;;;;;8.15;81.63;98007.75;220680;1274;23308;-75
2022/01/03 08:28:49;;;;;;;3.50;2.00;;;;;;;8.12;81.54;98012.48;220814;1274;25312;-77
2022/01/03 08:34:14;;;;;;;3.20;1.60;;;;;;;8.10;81.37;98016.89;220984;1274;25273;-74
2022/01/03 08:39:43;;;;;;;1.30;1.00;;;;;;;8.28;81.00;98015.91;220781;1274;22606;-75
2022/01/03 08:44:52;;;;;;;3.60;0.80;;;;;;;8.52;80.83;98024.52;220970;1273;22746;-75
2022/01/03 08:49:57;;;;;;;1.90;0.70;;;;;;;8.66;79.66;98026.20;220708;1273;25450;-74
2022/01/03 08:55:06;;;;;;;2.20;1.00;;;;;;;8.69;78.70;98026.69;220907;1274;26401;-74
2022/01/03 09:00:19;;;;;;;5.00;2.20;;;;;;;8.72;79.14;98025.98;220710;1274;22576;-74
2022/01/03 09:05:43;;;;;;;4.60;2.30;;;;;;;8.71;79.31;98027.83;220729;1274;24247;-75
2022/01/03 09:11:22;;;;;;;3.20;1.20;;;;;;;8.73;78.95;98025.49;220555;1274;22615;-75
2022/01/03 09:16:39;;;;;;;1.30;0.70;;;;;;;8.85;78.32;98030.25;220955;1274;26875;-74
2022/01/03 09:22:46;;;;;;;1.20;0.60;;;;;;;8.97;78.12;98028.21;220905;1274;22793;-74
2022/01/03 09:34:33;;;;;;;1.30;0.60;;;;;;;9.12;76.47;98027.94;221050;1274;22596;-76
2022/01/03 09:40:15;;;;;;;1.50;0.60;;;;;;;9.06;76.47;98029.27;220992;1274;22579;-74
2022/01/03 09:45:46;;;;;;;;;;;;;;;;;;;;;
2022/01/03 09:56:43;;;;;;;3.90;2.10;;;;;;;9.24;76.48;98025.81;220885;1274;22544;-75
2022/01/03 10:02:04;;;;;;;4.40;2.20;;;;;;;9.19;76.71;98023.22;220944;1274;22548;-76
2022/01/03 10:07:36;;;;;;;3.60;2.20;;;;;;;9.15;77.17;98015.38;220734;1277;23321;-75
2022/01/03 10:12:39;;;;;;;32.40;14.60;;;;;;;9.18;77.22;98019.75;220197;1277;23288;-75
2022/01/03 10:17:42;;;;;;;2.30;1.70;;;;;;;9.15;76.82;98021.95;220387;1277;22797;-74
2022/01/03 10:22:44;;;;;;;4.70;1.80;;;;;;;9.08;76.69;98032.17;220533;1276;24371;-75
2022/01/03 10:27:55;;;;;;;1.40;0.90;;;;;;;8.96;76.52;98035.71;220656;1277;25274;-76
2022/01/03 10:33:30;;;;;;;1.50;0.90;;;;;;;8.97;76.68;98034.52;220506;1277;25444;-75
2022/01/03 10:38:45;;;;;;;1.40;0.80;;;;;;;9.04;75.60;98037.32;220553;1276;22681;-75
2022/01/03 10:43:51;;;;;;;0.60;0.50;;;;;;;9.15;76.06;98036.16;220720;1277;22703;-74
2022/01/03 10:49:10;;;;;;;2.60;0.80;;;;;;;9.24;75.45;98039.84;220461;1276;22847;-74
2022/01/03 10:54:19;;;;;;;0.90;0.50;;;;;;;9.36;75.06;98038.15;220775;1276;22743;-74
2022/01/03 10:59:25;;;;;;;0.70;0.40;;;;;;;9.38;75.08;98033.11;220465;1276;24096;-75
2022/01/03 11:05:09;;;;;;;1.10;0.70;;;;;;;9.27;74.47;98035.29;220763;1277;23450;-75
2022/01/03 11:15:33;;;;;;;1.00;0.50;;;;;;;9.33;72.66;98029.46;220687;1276;24796;-74
2022/01/03 11:20:41;;;;;;;2.50;1.00;;;;;;;9.55;71.60;98021.30;220882;1276;24384;-75
2022/01/03 11:26:47;;;;;;;1.60;1.20;;;;;;;9.70;70.82;98010.33;220715;1276;22554;-76
2022/01/03 11:32:06;;;;;;;1.20;0.70;;;;;;;9.89;71.62;98021.06;220436;1277;22778;-74
2022/01/03 11:37:18;;;;;;;2.00;0.80;;;;;;;10.09;70.02;98017.77;220329;1277;22713;-76
2022/01/03 11:43:16;;;;;;;1.80;0.70;;;;;;;10.23;69.79;98007.61;220541;1277;25282;-74
2022/01/03 11:49:13;;;;;;;;;;;;;;;;;;;;;
2022/01/03 11:55:01;;;;;;;1.70;0.80;;;;;;;10.56;68.78;98007.67;220609;1276;25331;-74
2022/01/03 12:06:06;;;;;;;1.20;0.80;;;;;;;10.57;67.30;97996.48;220575;1276;22571;-75
2022/01/03 12:12:02;;;;;;;3.40;1.10;;;;;;;10.38;65.82;98000.08;220559;1276;22487;-76
2022/01/03 12:17:51;;;;;;;1.50;0.70;;;;;;;10.17;66.13;98006.14;220572;1276;25182;-76
2022/01/03 12:23:06;;;;;;;2.90;1.00;;;;;;;10.04;66.19;98006.21;220689;1276;22704;-75
2022/01/03 12:29:01;;;;;;;;;;;;;;;;;;;;;
2022/01/03 12:34:40;;;;;;;6.90;1.20;;;;;;;9.87;66.01;98003.65;220590;1276;22582;-75
2022/01/03 12:40:49;;;;;;;2.20;1.10;;;;;;;9.76;66.56;98005.67;220643;1276;22617;-73
2022/01/03 12:46:22;;;;;;;3.80;1.60;;;;;;;9.66;66.49;98004.54;220460;1276;24299;-74
2022/01/03 12:52:02;;;;;;;2.90;1.90;;;;;;;9.61;67.16;98002.67;220548;1276;22705;-75
2022/01/03 12:57:22;;;;;;;2.30;1.10;;;;;;;9.56;67.23;98000.27;220438;1276;25267;-75
2022/01/03 13:02:59;;;;;;;;;;;;;;;;;;;;;
2022/01/03 13:08:28;;;;;;;2.40;1.20;;;;;;;9.53;66.93;98009.31;220700;1276;22544;-73
2022/01/03 13:14:00;;;;;;;3.60;1.20;;;;;;;9.48;67.29;98010.88;220767;1276;25418;-75
2022/01/03 13:19:13;;;;;;;1.90;1.10;;;;;;;9.47;67.43;98026.72;220704;1276;22662;-76
2022/01/03 13:25:00;;;;;;;4.10;1.40;;;;;;;9.43;67.45;98031.77;220499;1276;22565;-76
2022/01/03 13:31:02;;;;;;;3.00;1.00;;;;;;;9.42;67.88;98033.81;220521;1275;22605;-74
2022/01/03 13:36:20;;;;;;;2.90;1.30;;;;;;;9.51;68.56;98038.71;220234;1276;22587;-75
2022/01/03 13:42:17;;;;;;;2.30;1.10;;;;;;;9.61;68.40;98041.52;220526;1276;23048;-75
2022/01/03 13:53:40;;;;;;;;;;;;;;;;;;;;;
2022/01/03 14:05:23;;;;;;;5.00;1.50;;;;;;;9.37;67.94;98048.95;220587;1277;22555;-74
2022/01/03 14:11:05;;;;;;;3.70;1.30;;;;;;;9.28;67.81;98057.23;220494;1276;23155;-74
2022/01/03 14:17:01;;;;;;;;;;;;;;;;;;;;;
2022/01/03 14:23:05;;;;;;;1.90;1.40;;;;;;;9.08;68.23;98060.17;220629;1276;25412;-75
2022/01/03 14:28:50;;;;;;;4.20;1.30;;;;;;;9.01;68.58;98061.25;220441;1276;22570;-74
2022/01/03 14:34:18;;;;;;;4.20;1.30;;;;;;;8.97;68.79;98074.05;220228;1277;22600;-74
2022/01/03 14:40:06;;;;;;;5.80;1.50;;;;;;;8.93;68.98;98076.38;220397;1276;22534;-74
2022/01/03 14:45:33;;;;;;;4.60;1.70;;;;;;;8.86;69.21;98075.90;220481;1276;25288;-74
2022/01/03 14:51:52;;;;;;;4.40;1.90;;;;;;;8.77;69.15;98077.04;220146;1276;24342;-73
2022/01/03 14:57:47;;;;;;;1.90;1.30;;;;;;;8.65;69.49;98089.81;219964;1276;22557;-74
2022/01/03 15:03:22;;;;;;;;;;;;;;;;;;;;;
2022/01/03 15:16:32;;;;;;;4.40;1.90;;;;;;;8.15;70.35;98109.54;219957;1276;22490;-75
2022/01/03 15:23:01;;;;;;;5.00;2.30;;;;;;;8.08;71.18;98102.66;220394;1276;22789;-75
2022/01/03 15:30:06;;;;;;;3.70;2.00;;;;;;;8.07;71.44;98101.27;220285;1276;25410;-75
2022/01/03 15:56:22;;;;;;;1.90;1.40;;;;;;;8.10;71.45;98101.41;220186;1276;22691;-74
2022/01/03 16:02:39;;;;;;;5.50;2.50;;;;;;;8.10;71.37;98110.04;220323;1276;22809;-74
2022/01/03 16:09:24;;;;;;;;;;;;;;;;;;;;;
2022/01/03 16:35:32;;;;;;;9.70;4.40;;;;;;;8.09;70.23;98096.36;220210;1276;25330;-76
2022/01/03 16:47:49;;;;;;;5.50;2.90;;;;;;;8.09;69.38;98103.92;220193;1276;23109;-76
2022/01/03 16:53:35;;;;;;;8.70;3.60;;;;;;;8.08;69.27;98109.80;220318;1276;22570;-75
2022/01/03 16:59:03;;;;;;;9.80;3.90;;;;;;;8.05;69.12;98103.38;220350;1276;23316;-76
2022/01/03 17:04:28;;;;;;;7.00;3.80;;;;;;;8.02;68.59;98099.46;220504;1276;25294;-76
2022/01/03 17:10:27;;;;;;;;;;;;;;;;;;;;;
2022/01/03 17:16:58;;;;;;;7.80;3.70;;;;;;;7.96;68.85;98087.50;220210;1276;22557;-75
2022/01/03 17:22:25;;;;;;;8.30;3.70;;;;;;;7.89;69.05;98087.54;220238;1276;25264;-75
2022/01/03 17:28:34;;;;;;;11.40;4.20;;;;;;;7.85;68.98;98082.20;220289;1276;22734;-76
2022/01/03 17:34:48;;;;;;;7.10;2.90;;;;;;;7.79;68.99;98076.48;220464;1276;24838;-75
2022/01/03 17:39:52;;;;;;;5.70;3.30;;;;;;;7.65;69.15;98074.25;220350;1276;25264;-75
2022/01/03 17:45:10;;;;;;;5.20;2.80;;;;;;;7.47;68.56;98067.32;220323;1276;22571;-75
2022/01/03 17:50:34;;;;;;;4.30;2.60;;;;;;;7.31;69.07;98072.78;220376;1276;22547;-75
2022/01/03 17:56:29;;;;;;;6.20;3.00;;;;;;;7.25;69.50;98069.30;220144;1276;24248;-74
2022/01/03 18:01:41;;;;;;;6.80;3.70;;;;;;;7.25;69.60;98065.14;220272;1276;22559;-76
2022/01/03 18:06:53;;;;;;;11.50;4.00;;;;;;;7.24;69.70;98056.40;220288;1276;25274;-75
2022/01/03 18:18:44;;;;;;;10.20;5.30;;;;;;;7.15;70.22;98063.91;220288;1276;22581;-75
2022/01/03 18:24:32;;;;;;;11.00;4.70;;;;;;;7.15;70.13;98061.56;220096;1278;22483;-74
2022/01/03 18:29:38;;;;;;;10.40;4.60;;;;;;;7.12;70.44;98055.63;220041;1278;25986;-75
2022/01/03 18:34:58;;;;;;;;;;;;;;;7.09;71.02;98045.69;220097;1278;24237;-75
2022/01/03 18:40:08;;;;;;;10.80;5.50;;;;;;;7.04;70.68;98044.63;220099;1277;23032;-75
2022/01/03 18:45:21;;;;;;;13.80;6.30;;;;;;;6.99;70.77;98039.14;220103;1279;25387;-75
2022/01/03 18:50:45;;;;;;;11.60;5.20;;;;;;;6.95;71.04;98044.67;220131;1279;25961;-75
2022/01/03 18:56:35;;;;;;;12.30;5.60;;;;;;;6.95;71.04;98039.92;220418;1276;24381;-75
2022/01/03 19:02:01;;;;;;;9.70;5.70;;;;;;;6.94;71.16;98033.97;220428;1276;22593;-75
2022/01/03 19:07:52;;;;;;;10.60;5.20;;;;;;;6.92;71.20;98027.81;220414;1276;22642;-75
2022/01/03 19:12:58;;;;;;;10.70;5.50;;;;;;;6.89;71.15;98029.66;220496;1276;23361;-75
2022/01/03 19:18:33;;;;;;;10.50;5.40;;;;;;;6.84;71.43;98016.66;220495;1276;22479;-76
2022/01/03 19:23:50;;;;;;;12.50;5.60;;;;;;;6.77;71.35;98015.34;220397;1276;22566;-75
2022/01/03 19:29:22;;;;;;;10.50;4.80;;;;;;;6.67;71.31;98017.52;220428;1276;22569;-76
2022/01/03 19:40:33;;;;;;;12.30;5.10;;;;;;;6.64;71.86;98010.67;220449;1274;22607;-76
2022/01/03 19:45:55;;;;;;;;;;;;;;;;;;;;;
2022/01/03 19:51:41;;;;;;;13.60;5.20;;;;;;;6.63;71.74;98008.18;220252;1276;22871;-76
2022/01/03 19:56:46;;;;;;;12.80;5.80;;;;;;;6.62;71.67;98001.11;220457;1276;24303;-75
2022/01/03 20:02:22;;;;;;;13.20;5.70;;;;;;;6.63;71.63;97994.04;220391;1276;22906;-76
2022/01/03 20:08:03;;;;;;;10.50;4.90;;;;;;;6.65;71.41;97990.17;220293;1276;23324;-76
2022/01/03 20:13:55;;;;;;;11.70;5.10;;;;;;;6.68;71.73;97983.33;220357;1276;25375;-75
2022/01/03 20:20:09;;;;;;;12.30;5.20;;;;;;;6.64;71.72;97980.55;216387;1276;5391273;-76
2022/01/03 20:25:50;;;;;;;9.00;4.70;;;;;;;6.57;71.95;97978.23;220391;1277;22615;-76
2022/01/03 20:31:06;;;;;;;12.10;5.20;;;;;;;6.52;72.19;97971.77;220124;1277;22550;-76
2022/01/03 20:36:09;;;;;;;11.00;5.10;;;;;;;6.53;72.32;97970.81;220205;1277;22552;-75
2022/01/03 20:41:37;;;;;;;11.50;5.20;;;;;;;6.56;72.38;97963.55;220253;1277;25946;-75
2022/01/03 20:46:56;;;;;;;;;;;;;;;;;;;;;
2022/01/03 20:52:00;;;;;;;7.90;4.10;;;;;;;6.37;72.10;97952.19;220516;1276;25323;-76
2022/01/03 20:57:11;;;;;;;9.30;4.20;;;;;;;6.28;72.44;97950.08;220466;1276;22560;-74
2022/01/03 21:02:17;;;;;;;11.00;4.30;;;;;;;6.18;72.51;97959.80;220504;1276;22578;-75
2022/01/03 21:07:52;;;;;;;13.10;4.40;;;;;;;6.07;72.79;97955.90;220425;1276;22554;-75
2022/01/03 21:13:56;;;;;;;;;;;;;;;;;;;;;
2022/01/03 21:19:52;;;;;;;10.90;4.20;;;;;;;5.82;73.47;97943.35;220284;1276;22518;-76
2022/01/03 21:25:16;;;;;;;14.20;5.20;;;;;;;5.77;73.78;97934.88;220526;1276;22569;-75
2022/01/03 21:30:41;;;;;;;9.10;3.80;;;;;;;5.70;74.44;97942.16;220427;1276;22862;-75
2022/01/03 21:36:06;;;;;;;11.40;4.50;;;;;;;5.65;74.59;97936.23;220428;1276;25212;-77
2022/01/03 21:41:49;;;;;;;;;;;;;;;;;;;;;
2022/01/03 21:47:27;;;;;;;8.70;3.50;;;;;;;5.60;75.67;97931.97;220239;1276;22600;-75
2022/01/03 21:53:01;;;;;;;6.10;3.90;;;;;;;5.66;75.82;97930.49;220320;1276;24581;-75
2022/01/03 21:58:03;;;;;;;8.60;3.90;;;;;;;5.76;76.01;97926.39;220363;1276;24218;-75
2022/01/03 22:03:06;;;;;;;9.10;4.40;;;;;;;5.87;76.25;97924.49;220434;1276;24212;-75
2022/01/03 22:09:01;;;;;;;9.80;3.60;;;;;;;5.95;76.46;97907.73;220317;1276;22576;-75
2022/01/03 22:14:33;;;;;;;10.90;3.90;;;;;;;5.99;76.57;97898.00;220244;1276;22679;-75
2022/01/03 22:19:38;;;;;;;10.70;4.40;;;;;;;6.02;76.53;97892.02;220373;1276;24746;-76
2022/01/03 22:24:51;;;;;;;10.40;4.70;;;;;;;6.05;76.79;97894.55;220248;1276;25373;-75
2022/01/03 22:30:38;;;;;;;7.20;4.20;;;;;;;6.11;76.87;97890.29;220273;1276;24254;-75
2022/01/03 22:53:55;;;;;;;5.90;2.70;;;;;;;6.44;77.56;97871.45;220452;1276;22689;-75
2022/01/03 22:59:09;;;;;;;8.10;3.50;;;;;;;6.52;77.46;97868.00;220246;1276;22559;-75
2022/01/03 23:04:58;;;;;;;;;;;;;;;;;;;;;
2022/01/03 23:11:03;;;;;;;;;;;;;;;;;;;;;
2022/01/03 23:16:49;;;;;;;6.90;2.90;;;;;;;6.70;77.02;97852.95;220253;1277;22566;-75
2022/01/03 23:22:51;;;;;;;5.00;2.50;;;;;;;6.72;76.85;97848.83;220314;1277;22563;-75
2022/01/03 23:29:06;;;;;;;5.80;3.20;;;;;;;6.75;77.08;97840.59;220248;1276;24268;-75
2022/01/03 23:35:59;;;;;;;6.40;2.80;;;;;;;6.77;77.24;97831.67;220206;1276;24723;-74
2022/01/03 23:42:17;;;;;;;9.70;3.10;;;;;;;6.80;77.39;97825.40;220070;1276;22984;-76
2022/01/03 23:48:21;;;;;;;4.70;2.30;;;;;;;6.80;77.73;97823.31;220279;1276;25364;-75
2022/01/03 23:54:34;;;;;;;6.20;2.40;;;;;;;6.80;78.36;97822.36;220160;1277;25948;-75
